Time;durP1;ratioP1;P1;durP2;ratioP2;P2;SDS_P1;SDS_P2;PMS_P1;PMS_P2;Temp;Humidity;BMP_temperature;BMP_pressure;BME280_temperature;BME280_humidity;BME280_pressure;Samples;Min_cycle;Max_cycle;Signal;HPM_P1;HPM_P2
2022/11/20 00:01:39;;;;;;;18.33;9.38;;;;;;;4.88;76.16;99981.84;10232836;29;20052;-63
2022/11/20 00:06:41;;;;;;;22.67;10.93;;;;;;;4.95;76.15;99982.91;10233346;29;20072;-63
2022/11/20 00:11:42;;;;;;;20.67;9.88;;;;;;;4.91;76.11;99982.38;10237906;29;20047;-64
2022/11/20 00:16:43;;;;;;;18.25;9.60;;;;;;;4.79;76.74;99982.75;10238019;29;20052;-63
2022/11/20 00:21:45;;;;;;;18.20;9.63;;;;;;;4.79;76.44;99964.94;10238071;29;20040;-64
2022/11/20 00:26:46;;;;;;;20.38;10.27;;;;;;;4.82;76.38;99975.28;10236588;29;20051;-63
2022/11/20 00:31:47;;;;;;;20.90;10.95;;;;;;;4.84;76.40;99967.13;10235434;29;20043;-64
2022/11/20 00:36:49;;;;;;;18.77;9.18;;;;;;;4.88;76.58;99971.22;10236814;29;20032;-63
2022/11/20 00:41:50;;;;;;;21.60;10.25;;;;;;;4.80;76.14;99974.59;10239980;29;20048;-64
2022/11/20 00:46:51;;;;;;;18.00;9.98;;;;;;;4.83;76.03;99942.34;10233534;29;20046;-63
2022/11/20 00:51:53;;;;;;;22.10;9.77;;;;;;;4.88;75.95;99944.56;10232444;29;20051;-64
2022/11/20 00:56:54;;;;;;;20.60;9.82;;;;;;;4.95;75.54;99948.28;10236858;29;20051;-64
2022/11/20 01:01:56;;;;;;;18.48;10.57;;;;;;;4.99;75.95;99949.66;10239097;29;20032;-65
2022/11/20 01:06:57;;;;;;;20.85;10.15;;;;;;;4.99;76.08;99947.00;10231806;29;20031;-63
2022/11/20 01:12:00;;;;;;;21.10;10.05;;;;;;;4.93;76.42;99951.09;10235076;29;20051;-63
2022/11/20 01:17:01;;;;;;;17.85;9.07;;;;;;;4.84;76.47;99961.81;10235007;29;20048;-63
2022/11/20 01:22:02;;;;;;;20.83;9.77;;;;;;;4.79;76.44;99954.28;10234917;29;20036;-62
2022/11/20 01:27:04;;;;;;;21.45;10.00;;;;;;;4.88;76.07;99948.06;10232474;29;20051;-63
2022/11/20 01:32:05;;;;;;;20.48;9.40;;;;;;;4.81;76.26;99946.97;10231151;29;20047;-63
2022/11/20 01:37:06;;;;;;;20.70;10.52;;;;;;;4.62;75.64;99939.94;10225095;29;20050;-63
2022/11/20 01:47:40;;;;;;;26.70;11.02;;;;;;;4.32;75.80;99939.22;10227924;29;20051;-63
2022/11/20 01:52:52;;;;;;;24.63;10.85;;;;;;;4.35;76.23;99935.44;10222767;29;20076;-63
2022/11/20 01:57:54;;;;;;;22.00;10.63;;;;;;;4.26;76.68;99942.44;10229243;29;20040;-63
2022/11/20 02:03:00;;;;;;;21.23;11.13;;;;;;;4.30;76.75;99940.34;10221385;29;20043;-62
2022/11/20 02:08:04;;;;;;;20.52;10.50;;;;;;;4.31;76.93;99931.41;10215458;29;20032;-62
2022/11/20 02:18:26;;;;;;;22.17;10.63;;;;;;;4.18;77.36;99942.34;10197154;29;20051;-65
2022/11/20 02:23:36;;;;;;;22.40;11.20;;;;;;;4.10;76.80;99937.75;10191233;29;20130;-68
2022/11/20 02:28:37;;;;;;;23.08;11.00;;;;;;;4.06;77.10;99933.69;10182389;29;20086;-68
2022/11/20 02:33:39;;;;;;;22.67;10.80;;;;;;;3.96;77.00;99928.41;10183756;29;20070;-68
2022/11/20 02:38:41;;;;;;;24.40;12.00;;;;;;;3.87;77.35;99937.25;10185251;29;20491;-67
2022/11/20 02:43:42;;;;;;;24.80;12.30;;;;;;;3.83;77.28;99937.66;10197279;29;20024;-64
2022/11/20 02:48:44;;;;;;;23.75;11.07;;;;;;;3.82;77.22;99930.69;10289382;23;20051;-86
2022/11/20 02:53:45;;;;;;;22.13;11.27;;;;;;;3.71;77.72;99921.91;10294361;28;20119;-87
2022/11/20 02:58:53;;;;;;;;;;;;;;;3.60;77.88;99938.00;10303266;28;20066;-87
2022/11/20 03:03:57;;;;;;;19.90;9.95;;;;;;;3.62;77.80;99929.88;10329888;28;19914;-89
2022/11/20 03:08:59;;;;;;;22.17;10.98;;;;;;;3.74;77.41;99923.44;10305293;28;20086;-89
2022/11/20 03:14:04;;;;;;;19.77;10.02;;;;;;;3.81;77.35;99924.53;10324526;28;20035;-88
2022/11/20 03:19:06;;;;;;;21.17;9.07;;;;;;;3.85;76.91;99903.81;10308904;28;20050;-89
2022/11/20 03:24:08;;;;;;;22.23;10.75;;;;;;;3.82;77.25;99907.59;10334724;28;20027;-90
2022/11/20 03:29:10;;;;;;;23.00;10.85;;;;;;;3.78;77.17;99917.69;10210574;23;20040;-64
2022/11/20 03:34:12;;;;;;;20.55;9.88;;;;;;;3.68;77.64;99916.84;10203947;28;20048;-64
2022/11/20 03:39:13;;;;;;;18.05;9.27;;;;;;;3.71;77.40;99931.66;10194248;29;20048;-61
2022/11/20 03:44:14;;;;;;;19.30;10.30;;;;;;;3.71;77.60;99923.69;10206994;29;20051;-64
2022/11/20 03:49:16;;;;;;;20.90;10.40;;;;;;;3.82;77.05;99912.91;10212523;28;20043;-64
2022/11/20 03:54:17;;;;;;;22.17;9.52;;;;;;;3.93;77.04;99909.25;10188824;29;20045;-63
2022/11/20 03:59:18;;;;;;;23.92;11.68;;;;;;;3.96;77.00;99900.97;10231080;29;20039;-63
2022/11/20 04:04:20;;;;;;;23.75;10.95;;;;;;;3.98;76.90;99904.34;10235309;29;20103;-64
2022/11/20 04:09:22;;;;;;;24.70;11.43;;;;;;;3.93;77.14;99890.63;10230899;29;20048;-65
2022/11/20 04:14:23;;;;;;;22.05;10.75;;;;;;;3.92;77.32;99895.09;10241913;29;20301;-64
2022/11/20 04:19:25;;;;;;;25.95;10.95;;;;;;;3.83;77.30;99887.16;10212830;29;20051;-64
2022/11/20 04:24:26;;;;;;;21.73;9.90;;;;;;;3.92;77.26;99907.56;10189671;29;20050;-65
2022/11/20 04:29:28;;;;;;;21.23;9.85;;;;;;;4.02;77.07;99888.94;10189519;29;20064;-65
2022/11/20 04:34:29;;;;;;;20.70;10.20;;;;;;;4.00;77.16;99883.75;10186640;29;20047;-65
2022/11/20 04:39:31;;;;;;;21.95;10.63;;;;;;;4.00;77.16;99880.25;10196814;29;20075;-64
2022/11/20 04:44:32;;;;;;;22.17;9.95;;;;;;;4.05;77.01;99886.81;10206750;29;20050;-65
2022/11/20 04:49:33;;;;;;;22.10;10.13;;;;;;;4.13;76.79;99894.09;10210909;29;20059;-64
2022/11/20 04:54:35;;;;;;;21.92;10.00;;;;;;;4.18;76.76;99884.66;10205630;29;20082;-63
2022/11/20 04:59:36;;;;;;;22.85;11.07;;;;;;;4.23;76.51;99876.25;10205078;29;20074;-64
2022/11/20 05:04:38;;;;;;;22.42;10.77;;;;;;;4.24;76.98;99867.28;10204722;29;20070;-64
2022/11/20 05:09:39;;;;;;;25.73;10.40;;;;;;;4.25;76.65;99860.97;10202999;29;20153;-64
2022/11/20 05:14:40;;;;;;;22.15;10.95;;;;;;;4.22;76.85;99863.94;10206392;29;20044;-64
2022/11/20 05:19:42;;;;;;;21.70;9.88;;;;;;;4.25;76.89;99862.81;10209916;29;20052;-64
2022/11/20 05:30:01;;;;;;;19.47;10.30;;;;;;;4.28;76.73;99865.16;10849979;23;20084;-65
2022/11/20 05:35:03;;;;;;;23.27;11.05;;;;;;;4.23;76.97;99873.59;10224962;28;20052;-67
2022/11/20 05:40:05;;;;;;;26.30;11.65;;;;;;;4.20;77.04;99886.34;10243391;28;20044;-68
2022/11/20 05:45:07;;;;;;;22.02;10.95;;;;;;;4.25;76.99;99870.78;10244900;29;20039;-67
2022/11/20 05:50:08;;;;;;;20.88;10.60;;;;;;;4.23;77.40;99864.78;10243969;28;20506;-65
2022/11/20 05:55:10;;;;;;;21.05;10.50;;;;;;;4.16;77.65;99875.16;10245678;28;20301;-68
2022/11/20 06:00:12;;;;;;;21.33;10.10;;;;;;;4.13;77.07;99876.28;10241534;29;20410;-67
2022/11/20 06:05:13;;;;;;;21.20;9.80;;;;;;;3.98;77.43;99877.75;10243676;28;20044;-68
2022/11/20 06:10:15;;;;;;;23.42;11.45;;;;;;;4.10;76.89;99876.56;10238461;29;20079;-67
2022/11/20 06:15:16;;;;;;;23.77;11.48;;;;;;;4.17;77.01;99860.88;10231473;29;20456;-68
2022/11/20 06:20:20;;;;;;;24.83;11.18;;;;;;;4.20;77.03;99862.41;10236650;28;20082;-63
2022/11/20 06:25:22;;;;;;;22.20;11.15;;;;;;;4.30;76.99;99861.38;10250378;29;20051;-64
2022/11/20 06:30:23;;;;;;;23.55;11.38;;;;;;;4.35;77.43;99867.09;10242615;28;20078;-64
2022/11/20 06:35:24;;;;;;;28.13;12.77;;;;;;;4.42;76.90;99862.00;10240626;28;20050;-63
2022/11/20 06:40:26;;;;;;;27.70;12.48;;;;;;;4.49;76.73;99857.78;10239272;29;20043;-64
2022/11/20 06:45:27;;;;;;;28.95;13.05;;;;;;;4.51;77.02;99841.66;10237672;29;20051;-62
2022/11/20 06:50:29;;;;;;;27.25;12.27;;;;;;;4.55;76.89;99857.16;10231622;28;20693;-59
2022/11/20 06:55:31;;;;;;;28.42;13.07;;;;;;;4.60;76.80;99866.53;10233420;28;20521;-60
2022/11/20 07:00:32;;;;;;;27.90;12.82;;;;;;;4.58;76.70;99864.00;10232949;28;20051;-63
2022/11/20 07:05:35;;;;;;;30.08;13.88;;;;;;;4.61;76.62;99870.88;10237271;28;20047;-61
2022/11/20 07:10:36;;;;;;;31.75;13.20;;;;;;;4.71;76.58;99859.16;10232504;29;20637;-60
2022/11/20 07:15:38;;;;;;;30.85;13.30;;;;;;;4.70;76.90;99848.66;10230414;28;20463;-59
2022/11/20 07:20:39;;;;;;;33.08;13.70;;;;;;;4.67;77.26;99860.47;10252492;28;20095;-60
2022/11/20 07:25:41;;;;;;;39.90;14.25;;;;;;;4.60;77.12;99867.38;10235494;29;20051;-64
2022/11/20 07:30:42;;;;;;;37.13;15.50;;;;;;;4.57;77.17;99868.50;10226450;28;20144;-65
2022/11/20 07:35:43;;;;;;;41.65;15.85;;;;;;;4.61;77.03;99871.72;10219503;28;20126;-65
2022/11/20 07:40:45;;;;;;;41.58;15.82;;;;;;;4.65;77.07;99870.41;10228973;28;20169;-65
2022/11/20 07:45:46;;;;;;;37.22;14.43;;;;;;;4.60;77.11;99874.50;10233576;29;20199;-65
2022/11/20 07:50:48;;;;;;;40.35;15.90;;;;;;;4.57;77.13;99875.66;10229163;28;20067;-65
2022/11/20 07:55:52;;;;;;;43.65;16.88;;;;;;;4.65;76.48;99880.25;10230911;28;20064;-65
2022/11/20 08:00:53;;;;;;;48.80;18.90;;;;;;;4.70;77.23;99877.94;10228183;29;20055;-65
2022/11/20 08:05:59;;;;;;;53.10;19.63;;;;;;;4.69;77.19;99889.59;10223829;29;20052;-65
2022/11/20 08:16:21;;;;;;;42.20;17.90;;;;;;;4.63;77.25;99898.19;10226976;28;20089;-65
2022/11/20 08:21:23;;;;;;;45.88;17.85;;;;;;;4.47;77.88;99896.19;10232734;28;20105;-65
2022/11/20 08:26:26;;;;;;;41.83;17.30;;;;;;;4.55;77.87;99897.09;10245924;29;20045;-63
2022/11/20 08:31:27;;;;;;;40.17;16.58;;;;;;;4.60;77.90;99896.66;10247458;28;20048;-60
2022/11/20 08:36:33;;;;;;;44.03;17.90;;;;;;;4.84;77.62;99903.22;10249000;29;20968;-61
2022/11/20 08:41:36;;;;;;;45.38;18.27;;;;;;;4.83;77.15;99912.22;10250061;28;20043;-62
2022/11/20 08:46:40;;;;;;;50.17;17.80;;;;;;;4.84;77.53;99903.22;10244512;28;20047;-61
2022/11/20 08:51:42;;;;;;;46.47;17.08;;;;;;;4.81;78.37;99904.38;10236367;29;20525;-59
2022/11/20 08:56:43;;;;;;;45.38;16.48;;;;;;;4.80;77.96;99904.50;10239640;28;20050;-63
2022/11/20 09:01:45;;;;;;;41.22;17.15;;;;;;;4.97;77.79;99904.53;10246423;28;20070;-61
2022/11/20 09:06:50;;;;;;;42.60;18.05;;;;;;;5.25;77.89;99909.81;10243282;29;20047;-68
2022/11/20 09:11:52;;;;;;;48.08;19.00;;;;;;;5.50;77.33;99907.38;10222321;29;20462;-69
2022/11/20 09:16:53;;;;;;;41.20;17.55;;;;;;;5.71;77.25;99915.03;10226398;28;20150;-70
2022/11/20 09:21:54;;;;;;;37.58;15.98;;;;;;;5.74;77.42;99923.53;10220280;28;20071;-68
2022/11/20 09:27:04;;;;;;;39.00;16.15;;;;;;;5.73;78.35;99916.53;10227601;28;20098;-69
2022/11/20 09:32:06;;;;;;;43.85;17.77;;;;;;;5.65;78.92;99908.50;10217427;28;20813;-69
2022/11/20 09:37:07;;;;;;;39.50;16.83;;;;;;;5.78;77.82;99913.41;10206187;28;20486;-66
2022/11/20 09:42:37;;;;;;;47.45;16.08;;;;;;;5.81;78.30;99904.28;10229251;28;20139;-69
2022/11/20 09:48:03;;;;;;;39.97;15.45;;;;;;;5.92;77.26;99917.31;10225244;28;20126;-69
2022/11/20 09:53:19;;;;;;;39.53;14.70;;;;;;;5.98;78.08;99907.91;10214288;28;20069;-68
2022/11/20 09:58:45;;;;;;;37.60;15.02;;;;;;;6.20;78.07;99899.38;10223108;28;20566;-69
2022/11/20 10:03:55;;;;;;;32.85;13.63;;;;;;;6.37;77.67;99883.44;10221543;28;20071;-70
2022/11/20 10:09:06;;;;;;;36.58;15.20;;;;;;;6.46;77.74;99887.81;10226545;28;20159;-67
2022/11/20 10:14:23;;;;;;;35.92;14.30;;;;;;;6.66;78.07;99894.56;10222680;29;20086;-68
2022/11/20 10:19:37;;;;;;;36.00;14.88;;;;;;;6.82;77.96;99888.41;10223462;28;20498;-69
2022/11/20 10:24:51;;;;;;;33.25;14.10;;;;;;;6.64;78.15;99893.06;10228313;29;20134;-69
2022/11/20 10:30:13;;;;;;;38.95;16.08;;;;;;;6.51;78.08;99885.47;10222912;28;20125;-69
2022/11/20 10:35:33;;;;;;;35.15;14.85;;;;;;;6.49;77.56;99884.81;10224012;29;20048;-69
2022/11/20 10:40:44;;;;;;;37.33;14.77;;;;;;;6.63;78.23;99878.84;10225716;28;20126;-65
2022/11/20 10:46:04;;;;;;;35.30;16.27;;;;;;;6.84;77.41;99874.91;10222166;28;20093;-64
2022/11/20 10:51:29;;;;;;;36.28;14.93;;;;;;;7.01;77.26;99873.09;10226905;28;20074;-64
2022/11/20 10:56:45;;;;;;;38.30;15.75;;;;;;;7.13;76.79;99869.94;10222763;29;20110;-65
2022/11/20 11:01:50;;;;;;;42.33;16.23;;;;;;;7.22;76.82;99865.41;10220164;28;20074;-65
2022/11/20 11:06:58;;;;;;;38.05;14.82;;;;;;;7.28;77.05;99848.72;10214115;28;20086;-64
2022/11/20 11:12:00;;;;;;;35.67;15.98;;;;;;;7.43;76.10;99840.88;10227496;28;20102;-65
2022/11/20 11:17:20;;;;;;;35.13;15.13;;;;;;;7.23;76.49;99851.06;10226910;28;20047;-67
2022/11/20 11:22:21;;;;;;;33.05;14.52;;;;;;;7.14;77.36;99852.88;10242063;28;20055;-66
2022/11/20 11:27:23;;;;;;;31.38;14.23;;;;;;;7.14;76.80;99839.53;10240300;28;20072;-67
2022/11/20 11:32:26;;;;;;;39.15;15.80;;;;;;;7.05;77.88;99835.19;10239208;28;20039;-66
2022/11/20 11:37:34;;;;;;;38.13;16.38;;;;;;;7.32;76.26;99820.63;10220344;29;20155;-66
2022/11/20 11:42:43;;;;;;;34.92;15.65;;;;;;;7.55;76.19;99828.00;10229776;29;20074;-65
2022/11/20 11:47:51;;;;;;;36.03;16.13;;;;;;;7.71;76.75;99819.09;10235828;28;20499;-65
2022/11/20 11:53:01;;;;;;;31.10;14.45;;;;;;;7.81;76.61;99805.53;10220247;28;20068;-66
2022/11/20 11:58:16;;;;;;;33.97;14.75;;;;;;;7.88;75.88;99811.88;10223261;29;20067;-63
2022/11/20 12:03:24;;;;;;;33.65;15.18;;;;;;;7.94;75.92;99798.63;10203855;29;20044;-64
2022/11/20 12:08:48;;;;;;;35.80;16.42;;;;;;;8.05;76.40;99800.09;10200742;28;20095;-63
2022/11/20 12:13:58;;;;;;;33.53;15.50;;;;;;;8.13;75.97;99797.38;10202823;29;20182;-65
2022/11/20 12:18:59;;;;;;;37.03;16.05;;;;;;;8.26;76.40;99799.50;10190876;29;20391;-64
2022/11/20 12:24:20;;;;;;;32.15;14.32;;;;;;;8.30;76.08;99783.94;10203670;29;20047;-65
2022/11/20 12:29:21;;;;;;;37.15;17.50;;;;;;;8.37;75.82;99779.53;10216174;29;20089;-64
2022/11/20 12:34:55;;;;;;;40.13;16.25;;;;;;;8.44;76.07;99775.16;10193517;29;20135;-65
2022/11/20 12:40:15;;;;;;;35.83;16.70;;;;;;;8.40;75.51;99792.56;10193887;28;20126;-64
2022/11/20 12:45:54;;;;;;;39.33;16.50;;;;;;;8.39;75.95;99796.25;10232024;28;20146;-64
2022/11/20 12:51:20;;;;;;;37.22;15.82;;;;;;;8.29;75.45;99780.44;10215191;29;20455;-64
2022/11/20 12:56:25;;;;;;;32.60;16.30;;;;;;;8.24;75.92;99787.31;10232674;28;20149;-65
2022/11/20 13:01:40;;;;;;;38.90;17.80;;;;;;;8.21;75.18;99777.75;10230886;28;20126;-65
2022/11/20 13:06:43;;;;;;;36.80;18.35;;;;;;;8.24;75.38;99772.06;10229227;28;20435;-64
2022/11/20 13:11:51;;;;;;;41.75;17.27;;;;;;;8.29;75.60;99767.03;10229375;28;20039;-65
2022/11/20 13:17:13;;;;;;;37.90;17.10;;;;;;;8.32;75.19;99763.16;10228183;28;20133;-64
2022/11/20 13:22:42;;;;;;;41.03;17.05;;;;;;;8.37;75.57;99758.09;10228426;28;20135;-64
2022/11/20 13:27:48;;;;;;;38.67;17.60;;;;;;;8.27;75.52;99744.97;10222337;28;20129;-64
2022/11/20 13:32:57;;;;;;;47.60;18.50;;;;;;;8.14;76.02;99734.81;10225624;29;20071;-65
2022/11/20 13:38:00;;;;;;;42.53;18.60;;;;;;;8.21;76.04;99737.59;10222992;28;20074;-64
2022/11/20 13:43:22;;;;;;;38.33;17.30;;;;;;;8.24;75.45;99731.09;10221605;28;20569;-64
2022/11/20 13:48:29;;;;;;;39.53;18.50;;;;;;;8.27;75.59;99728.91;10222470;28;20498;-65
2022/11/20 13:53:53;;;;;;;41.83;17.88;;;;;;;8.21;75.30;99723.38;10219473;28;20059;-66
2022/11/20 13:59:03;;;;;;;43.15;17.30;;;;;;;8.24;74.96;99726.56;10231085;28;20157;-63
2022/11/20 14:04:09;;;;;;;44.30;18.58;;;;;;;8.18;75.30;99715.72;10229120;29;20062;-67
2022/11/20 14:09:12;;;;;;;42.40;18.00;;;;;;;8.19;75.73;99725.41;10225226;29;20067;-67
2022/11/20 14:14:18;;;;;;;39.78;18.10;;;;;;;8.18;75.34;99719.22;10227467;28;20048;-66
2022/11/20 14:19:20;;;;;;;43.22;18.98;;;;;;;8.17;75.55;99706.84;10228509;28;20142;-64
2022/11/20 14:24:24;;;;;;;47.13;19.15;;;;;;;8.12;75.80;99703.88;10228076;28;20134;-63
2022/11/20 14:29:34;;;;;;;45.17;19.10;;;;;;;8.10;75.00;99696.00;10229974;28;20529;-64
2022/11/20 14:34:40;;;;;;;44.42;20.33;;;;;;;8.10;75.38;99685.31;10229056;28;20130;-66
2022/11/20 14:39:47;;;;;;;46.75;17.77;;;;;;;8.10;75.53;99677.28;10225037;28;20057;-64
2022/11/20 14:44:50;;;;;;;49.35;19.38;;;;;;;8.08;75.66;99679.31;10231302;28;20059;-63
2022/11/20 14:49:54;;;;;;;50.60;20.42;;;;;;;8.07;75.79;99674.94;10218939;28;20138;-62
2022/11/20 14:55:00;;;;;;;49.40;19.25;;;;;;;8.04;75.60;99678.00;10228962;28;20086;-63
2022/11/20 15:00:14;;;;;;;52.20;21.50;;;;;;;8.01;75.58;99651.56;10228065;29;20109;-63
2022/11/20 15:05:17;;;;;;;49.10;20.65;;;;;;;8.01;75.47;99648.88;10223566;28;20130;-61
2022/11/20 15:10:24;;;;;;;54.15;22.25;;;;;;;8.01;75.61;99650.75;10220984;28;20082;-64
2022/11/20 15:15:43;;;;;;;55.78;22.42;;;;;;;7.97;76.26;99642.22;10229108;28;20143;-63
2022/11/20 15:20:45;;;;;;;55.03;21.85;;;;;;;7.97;75.63;99642.22;10227710;28;20099;-61
2022/11/20 15:25:48;;;;;;;49.65;21.92;;;;;;;8.03;76.03;99644.19;10222811;29;20130;-62
2022/11/20 15:30:50;;;;;;;44.13;19.92;;;;;;;8.06;75.55;99635.00;10217811;28;20071;-64
2022/11/20 15:35:51;;;;;;;47.17;21.70;;;;;;;8.09;75.59;99637.28;10220769;28;20778;-64
2022/11/20 15:40:52;;;;;;;48.53;21.08;;;;;;;7.98;76.31;99630.53;10223040;29;20115;-62
2022/11/20 15:45:59;;;;;;;55.53;23.60;;;;;;;7.91;75.83;99614.31;10222531;29;20514;-63
2022/11/20 15:51:21;;;;;;;53.33;22.95;;;;;;;7.89;75.71;99616.34;10234236;28;20074;-62
2022/11/20 15:56:23;;;;;;;51.53;23.15;;;;;;;7.90;75.93;99610.00;10236732;28;20047;-65
2022/11/20 16:01:24;;;;;;;53.40;23.27;;;;;;;7.97;76.22;99604.75;10227239;29;20138;-63
2022/11/20 16:06:26;;;;;;;51.30;22.20;;;;;;;7.99;76.41;99597.38;10229127;29;20040;-63
2022/11/20 16:11:27;;;;;;;53.85;22.08;;;;;;;8.02;76.26;99593.53;10229460;29;20066;-63
2022/11/20 16:16:32;;;;;;;56.03;23.85;;;;;;;8.03;76.15;99587.97;10242828;28;20646;-64
2022/11/20 16:21:34;;;;;;;48.78;22.85;;;;;;;8.04;76.24;99562.91;10234008;28;20081;-63
2022/11/20 16:26:36;;;;;;;57.05;22.73;;;;;;;8.05;76.51;99559.19;10233517;28;20047;-63
2022/11/20 16:31:39;;;;;;;47.97;21.23;;;;;;;8.04;76.32;99565.56;10236874;28;20070;-64
2022/11/20 16:36:41;;;;;;;50.30;20.88;;;;;;;8.06;76.81;99544.81;10231305;29;20094;-63
2022/11/20 16:41:43;;;;;;;39.50;19.95;;;;;;;8.06;76.10;99544.81;10231308;29;20473;-65
2022/11/20 16:46:44;;;;;;;52.50;22.85;;;;;;;8.12;75.80;99541.41;10229997;29;20778;-62
2022/11/20 16:51:46;;;;;;;46.80;21.00;;;;;;;8.13;76.43;99535.03;10230728;28;20044;-64
2022/11/20 16:56:47;;;;;;;46.90;21.35;;;;;;;8.01;76.47;99530.31;10235507;28;20048;-64
2022/11/20 17:01:49;;;;;;;49.15;20.88;;;;;;;7.88;77.10;99536.28;10254992;28;20070;-64
2022/11/20 17:06:50;;;;;;;51.80;22.30;;;;;;;7.56;77.87;99548.81;10259492;28;20047;-62
2022/11/20 17:11:52;;;;;;;35.78;15.80;;;;;;;7.24;78.66;99556.00;10243489;28;20059;-64
2022/11/20 17:16:53;;;;;;;40.70;15.68;;;;;;;7.19;79.30;99542.34;10262257;28;20042;-63
2022/11/20 17:21:55;;;;;;;47.80;19.23;;;;;;;7.32;79.25;99520.41;10257923;28;20571;-63
2022/11/20 17:26:56;;;;;;;44.95;18.55;;;;;;;7.44;78.78;99504.78;10249880;28;20066;-63
2022/11/20 17:31:57;;;;;;;52.83;22.05;;;;;;;7.51;78.41;99500.41;10254074;28;20112;-63
2022/11/20 17:36:59;;;;;;;50.72;22.23;;;;;;;7.50;78.72;99488.03;10269491;28;20406;-63
2022/11/20 17:47:21;;;;;;;49.35;19.73;;;;;;;7.42;79.14;99485.41;10271056;28;20052;-63
2022/11/20 17:52:22;;;;;;;52.60;19.27;;;;;;;7.44;78.86;99470.03;10274724;28;20048;-63
2022/11/20 18:02:44;;;;;;;53.63;21.92;;;;;;;7.54;79.29;99463.44;10268702;29;20372;-62
2022/11/20 18:07:45;;;;;;;55.00;20.00;;;;;;;7.59;78.95;99464.75;10247697;29;20051;-62
2022/11/20 18:12:47;;;;;;;51.60;19.75;;;;;;;7.45;79.46;99451.13;10238066;29;20054;-64
2022/11/20 18:17:49;;;;;;;46.72;17.40;;;;;;;7.49;79.68;99432.91;10251622;28;20114;-64
2022/11/20 18:22:50;;;;;;;58.42;19.02;;;;;;;7.52;79.03;99427.19;10253904;28;20044;-63
2022/11/20 18:27:51;;;;;;;61.03;20.60;;;;;;;7.60;79.42;99413.75;10264551;28;20062;-64
2022/11/20 18:32:54;;;;;;;66.15;25.55;;;;;;;7.59;79.54;99404.06;10278012;28;20055;-63
2022/11/20 18:37:55;;;;;;;66.78;25.30;;;;;;;7.60;79.71;99399.53;10269951;29;20051;-64
2022/11/20 18:48:16;;;;;;;53.88;21.98;;;;;;;7.59;79.48;99384.53;10272068;28;20046;-66
2022/11/20 18:53:18;;;;;;;59.75;21.42;;;;;;;7.60;79.21;99378.16;10242605;28;20503;-64
2022/11/20 18:58:19;;;;;;;47.35;17.50;;;;;;;7.53;79.76;99364.69;10269833;29;20042;-64
2022/11/20 19:08:34;;;;;;;39.13;14.07;;;;;;;7.32;80.54;99352.81;10269387;28;20054;-86
2022/11/20 19:13:36;;;;;;;34.58;12.90;;;;;;;7.32;81.22;99343.97;10254807;28;20071;-86
2022/11/20 19:18:38;;;;;;;23.20;10.50;;;;;;;7.28;81.46;99342.66;10266594;28;20035;-84
2022/11/20 19:23:40;;;;;;;24.52;9.82;;;;;;;7.25;82.33;99338.50;10248701;28;20519;-84
2022/11/20 19:28:42;;;;;;;29.55;11.52;;;;;;;7.28;82.12;99337.31;10243517;28;20039;-85
2022/11/20 19:33:44;;;;;;;24.80;10.35;;;;;;;7.28;82.88;99331.97;10258023;28;20146;-85
2022/11/20 19:38:49;;;;;;;29.95;10.07;;;;;;;7.27;82.71;99335.66;10275224;28;20044;-86
2022/11/20 19:43:50;;;;;;;20.20;8.57;;;;;;;7.39;82.11;99320.84;10260701;28;20050;-86
2022/11/20 19:48:53;;;;;;;19.92;8.93;;;;;;;7.47;81.71;99314.59;10277737;28;20043;-86
2022/11/20 19:53:56;;;;;;;20.17;6.35;;;;;;;7.40;82.15;99305.63;10242448;28;20080;-87
2022/11/20 19:58:58;;;;;;;16.15;6.50;;;;;;;7.43;82.62;99302.63;10261717;28;20048;-86
2022/11/20 20:04:01;;;;;;;11.23;4.15;;;;;;;7.41;83.04;99288.59;10243387;28;20052;-86
2022/11/20 20:09:08;;;;;;;7.80;3.47;;;;;;;7.45;83.05;99293.38;10214673;28;20056;-86
2022/11/20 20:14:13;;;;;;;7.53;2.70;;;;;;;7.51;82.66;99276.63;10196121;29;20052;-86
2022/11/20 20:19:15;;;;;;;5.13;2.17;;;;;;;7.55;82.92;99271.72;10231598;28;20043;-88
2022/11/20 20:24:23;;;;;;;4.68;2.10;;;;;;;7.58;82.74;99270.53;10215887;29;20495;-88
2022/11/20 20:29:25;;;;;;;3.97;2.30;;;;;;;7.61;82.76;99260.31;10213643;29;20050;-85
2022/11/20 20:34:30;;;;;;;2.95;1.60;;;;;;;7.51;82.87;99262.41;10199571;29;20060;-86
2022/11/20 20:39:31;;;;;;;2.25;1.85;;;;;;;7.51;82.96;99262.41;10221370;29;20057;-86
2022/11/20 20:49:54;;;;;;;1.33;0.55;;;;;;;7.48;82.53;99268.13;10229022;28;20046;-86
2022/11/20 20:54:57;;;;;;;2.13;0.70;;;;;;;7.47;83.14;99269.16;10216097;28;20251;-87
2022/11/20 20:59:59;;;;;;;1.52;0.63;;;;;;;7.47;83.20;99258.44;10216166;29;20111;-86
2022/11/20 21:05:02;;;;;;;2.45;0.82;;;;;;;7.50;83.33;99248.22;10212503;28;20082;-87
2022/11/20 21:10:04;;;;;;;3.80;0.60;;;;;;;7.49;83.10;99264.44;10213469;29;20047;-87
2022/11/20 21:15:07;;;;;;;1.08;0.60;;;;;;;7.50;82.86;99258.06;10218782;29;20051;-88
2022/11/20 21:21:57;;;;;;;0.98;0.70;;;;;;;7.51;83.19;99262.41;10195820;29;20098;-88
2022/11/20 21:25:36;;;;;;;2.78;0.70;;;;;;;7.52;82.53;99248.03;10218993;29;20067;-88
2022/11/20 21:30:37;;;;;;;0.70;0.40;;;;;;;7.57;82.22;99253.66;10209323;29;20399;-88
2022/11/20 21:35:40;;;;;;;1.02;0.52;;;;;;;7.57;82.77;99242.13;10232768;29;20111;-88
2022/11/20 21:40:41;;;;;;;3.83;1.33;;;;;;;7.51;82.19;99236.50;10236943;28;20050;-88
2022/11/20 21:45:43;;;;;;;1.63;0.63;;;;;;;7.51;82.17;99241.03;10242688;23;20052;-63
2022/11/20 21:50:44;;;;;;;1.55;0.50;;;;;;;7.52;82.65;99238.19;10219658;28;20560;-63
2022/11/20 21:55:55;;;;;;;0.70;0.38;;;;;;;7.50;82.35;99221.50;10238542;28;20107;-63
2022/11/20 22:00:57;;;;;;;0.90;0.43;;;;;;;7.46;82.28;99243.41;10236376;28;20055;-63
2022/11/20 22:05:58;;;;;;;1.85;0.60;;;;;;;7.48;82.67;99236.84;10230194;28;20082;-63
2022/11/20 22:11:03;;;;;;;4.45;0.47;;;;;;;7.51;82.28;99227.66;10243233;29;20070;-63
2022/11/20 22:16:04;;;;;;;2.03;0.47;;;;;;;7.52;82.10;99223.97;10243886;28;20067;-63
2022/11/20 22:21:06;;;;;;;1.33;0.40;;;;;;;7.53;82.55;99209.59;10229492;28;20043;-64
2022/11/20 22:26:10;;;;;;;3.17;0.40;;;;;;;7.49;82.23;99214.47;10233010;29;20599;-63
2022/11/20 22:31:11;;;;;;;1.45;0.70;;;;;;;7.49;82.25;99222.50;10251272;28;20058;-63
2022/11/20 22:36:15;;;;;;;2.65;0.50;;;;;;;7.51;82.07;99222.31;10245916;29;20398;-63
2022/11/20 22:41:19;;;;;;;1.58;0.50;;;;;;;7.51;82.01;99227.66;10242750;29;20134;-64
2022/11/20 22:46:21;;;;;;;7.43;1.20;;;;;;;7.54;81.75;99222.78;10239948;29;20066;-63
2022/11/20 22:51:31;;;;;;;3.83;0.60;;;;;;;7.54;81.86;99214.75;10234180;29;20047;-64
2022/11/20 22:56:33;;;;;;;2.53;0.80;;;;;;;7.54;82.04;99216.56;10233868;29;20043;-64
2022/11/20 23:01:36;;;;;;;2.97;0.70;;;;;;;7.58;82.00;99209.84;10224406;29;20454;-64
2022/11/20 23:06:38;;;;;;;1.50;0.70;;;;;;;7.60;81.54;99207.81;10222111;29;20143;-64
2022/11/20 23:11:39;;;;;;;3.30;0.50;;;;;;;7.59;81.70;99216.03;10226715;28;20641;-64
2022/11/20 23:16:41;;;;;;;6.18;1.02;;;;;;;7.62;82.46;99227.22;10233522;28;20059;-64
2022/11/20 23:21:42;;;;;;;3.38;0.50;;;;;;;7.66;82.33;99225.81;10240525;28;20064;-63
2022/11/20 23:26:46;;;;;;;4.72;0.60;;;;;;;7.68;82.33;99234.50;10304991;23;20044;-87
2022/11/20 23:31:47;;;;;;;4.68;0.65;;;;;;;7.69;82.23;99230.78;10253293;28;20065;-87
2022/11/20 23:36:48;;;;;;;5.25;0.60;;;;;;;7.80;81.97;99239.34;10233900;28;20043;-89
2022/11/20 23:41:50;;;;;;;6.07;0.50;;;;;;;7.78;82.30;99241.38;10233983;28;20111;-87
2022/11/20 23:46:54;;;;;;;3.88;0.60;;;;;;;7.84;82.47;99227.25;10257559;28;20154;-89
2022/11/20 23:51:56;;;;;;;5.65;0.95;;;;;;;7.85;82.26;99227.06;10253127;28;20418;-87
2022/11/20 23:56:57;;;;;;;6.75;1.08;;;;;;;8.01;81.95;99217.19;10227558;28;20293;-88
